Latest Weather Observations for Julia Creek

IDQ60801

Issued at 11:32 am EST Saturday 4 July 2015 (issued every 30 minutes, with the page automatically refreshed every 10 minutes)

About weather observations | Map of weather stations | Latest weather observations for QLD | Other Formats
Station Details ID: 029058 Name: JULIA CREEK AIRPORT Lat: -20.67 Lon: 141.72 Height: 122.5 m
Data from the previous 72 hours. | See also: Recent months at Julia Creek
Date/Time
EST
Temp
°C
App
Temp
°C
Dew
Point
Rel
Hum
%
Delta-T
°C
Wind Press
QNH
hPa
Press
MSL
hPa
Rain
since 9 am
mm
Dir
 
Spd
km/h
Gust
km/h
Spd
kts
Gust
kts
04/11:00am 21.3 16.8 -0.1 24 9.6 E 13 20 7 11 1019.1 1018.9 0.0
04/10:30am 19.7 15.3 0.2 27 8.7 ESE 13 20 7 11 1019.4 1019.2 0.0
04/10:00am 18.3 13.1 0.4 30 7.9 ESE 17 22 9 12 1019.4 1019.2 0.0
04/09:30am 16.4 10.6 -0.3 32 7.1 ESE 20 24 11 13 1019.3 1019.1 0.0
04/09:00am 14.7 8.9 -0.2 36 6.3 ESE 20 24 11 13 1019.3 1019.1 0.0
04/08:30am 12.9 7.1 0.0 41 5.4 ESE 20 24 11 13 1019.0 1018.8 0.0
04/08:00am 11.6 6.0 -0.2 44 4.8 SE 19 22 10 12 1018.7 1018.5 0.0
04/07:30am 10.4 4.7 -0.4 47 4.3 SE 19 24 10 13 1018.5 1018.3 0.0
04/07:00am 9.7 4.4 -0.5 49 4.1 SE 17 20 9 11 1018.3 1018.1 0.0
04/06:30am 10.2 4.9 -0.3 48 4.2 SE 17 20 9 11 1018.2 1018.0 0.0
04/06:00am 10.4 4.7 -0.4 47 4.3 SE 19 22 10 12 1018.0 1017.8 0.0
04/05:30am 10.6 4.7 -0.5 46 4.5 SE 20 24 11 13 1017.8 1017.6 0.0
04/05:00am 10.9 5.0 -0.9 44 4.7 SE 20 24 11 13 1017.8 1017.6 0.0
04/04:30am 11.3 5.4 -0.8 43 4.9 SE 20 24 11 13 1017.9 1017.7 0.0
04/04:00am 11.3 5.4 -1.1 42 4.9 SSE 20 26 11 14 1017.9 1017.7 0.0
04/03:30am 11.0 5.2 -1.4 42 4.9 SSE 19 20 10 11 1018.0 1017.8 0.0
04/03:00am 11.0 5.6 -1.4 42 4.9 SE 17 20 9 11 1018.2 1018.0 0.0
04/02:30am 11.4 6.0 -1.4 41 5.1 SSE 17 22 9 12 1018.2 1018.0 0.0
04/02:00am 11.9 6.6 -0.9 41 5.2 SSE 17 20 9 11 1018.5 1018.3 0.0
04/01:30am 12.2 6.9 -0.6 41 5.2 SSE 17 20 9 11 1018.7 1018.5 0.0
04/01:00am 12.0 7.1 -0.2 43 5.0 SSE 15 17 8 9 1018.6 1018.4 0.0
04/12:30am 12.3 7.5 0.1 43 5.0 SSE 15 17 8 9 1018.6 1018.4 0.0
04/12:00am 12.9 8.1 0.3 42 5.3 SSE 15 17 8 9 1018.8 1018.6 0.0
 
Date/Time
EST
Temp
°C
App
Temp
°C
Dew
Point
Rel
Hum
%
Delta-T
°C
Wind Press
QNH
hPa
Press
MSL
hPa
Rain
since 9 am
mm
Dir
 
Spd
km/h
Gust
km/h
Spd
kts
Gust
kts
03/11:30pm 13.8 9.1 0.8 41 5.6 SE 15 19 8 10 1019.0 1018.8 0.0
03/11:00pm 14.5 9.5 1.4 41 5.7 SSE 17 19 9 10 1019.1 1018.9 0.0
03/10:30pm 14.9 10.3 1.8 41 5.8 SSE 15 19 8 10 1019.2 1019.0 0.0
03/10:00pm 15.6 10.7 2.1 40 6.0 SSE 17 20 9 11 1019.2 1019.0 0.0
03/09:30pm 16.0 11.1 2.1 39 6.2 SSE 17 20 9 11 1019.0 1018.8 0.0
03/09:00pm 16.5 11.6 2.2 38 6.4 S 17 20 9 11 1018.9 1018.7 0.0
03/08:30pm 16.7 12.2 2.0 37 6.6 S 15 19 8 10 1018.6 1018.4 0.0
03/08:00pm 16.5 11.9 1.8 37 6.6 S 15 17 8 9 1018.4 1018.2 0.0
03/07:30pm 17.1 12.5 1.5 35 7.0 S 15 15 8 8 1018.1 1017.9 0.0
03/07:00pm 18.1 13.9 1.6 33 7.4 S 13 15 7 8 1017.9 1017.7 0.0
03/06:00pm 22.5 18.2 3.1 28 9.3 SSE 15 19 8 10 1017.5 1017.3 0.0
03/05:30pm 23.9 18.8 3.2 26 10.1 SSE 19 22 10 12 1017.3 1017.1 0.0
03/05:00pm 24.4 19.4 3.7 26 10.2 SE 19 26 10 14 1017.2 1017.0 0.0
03/04:30pm 25.2 20.8 2.6 23 11.0 SSE 15 28 8 15 1017.1 1016.9 0.0
03/04:00pm 24.9 20.8 4.1 26 10.4 SE 15 22 8 12 1017.0 1016.8 0.0
03/03:30pm 24.8 21.0 4.0 26 10.3 SE 13 22 7 12 1017.2 1017.0 0.0
03/03:00pm 24.1 20.0 4.5 28 9.8 SE 15 24 8 13 1017.4 1017.2 0.0
03/02:30pm 24.4 19.6 4.7 28 9.9 SE 19 32 10 17 1017.8 1017.6 0.0
03/02:00pm 23.8 19.9 5.2 30 9.4 SE 15 22 8 12 1018.2 1018.0 0.0
03/01:30pm 23.6 19.4 5.5 31 9.2 SE 17 24 9 13 1018.7 1018.5 0.0
03/01:00pm 22.8 18.1 5.3 32 8.8 SE 19 28 10 15 1019.3 1019.1 0.0
03/12:30pm 22.1 17.4 5.1 33 8.5 ESE 19 30 10 16 1019.9 1019.7 0.0
03/12:00pm 22.0 16.9 5.8 35 8.2 ESE 22 32 12 17 1020.6 1020.4 0.0
03/11:30am 21.0 15.6 6.2 38 7.5 SE 24 32 13 17 1021.0 1020.8 0.0
03/11:00am 20.2 14.0 6.2 40 7.0 ESE 28 37 15 20 1021.5 1021.3 0.0
03/10:30am 19.1 12.5 5.9 42 6.5 SE 30 35 16 19 1021.9 1021.7 0.0
03/10:00am 18.1 11.2 6.3 46 5.8 SE 32 39 17 21 1022.1 1021.9 0.0
03/09:30am 16.9 10.4 6.4 50 5.2 SE 30 37 16 20 1022.1 1021.9 0.0
03/09:00am 15.1 7.8 5.6 53 4.5 SE 33 39 18 21 1022.0 1021.8 0.0
03/08:30am 13.7 7.7 5.3 57 4.0 SE 26 33 14 18 1021.8 1021.6 0.0
03/08:00am 12.4 7.1 5.1 61 3.4 SE 22 30 12 16 1021.6 1021.4 0.0
03/07:30am 11.4 6.6 4.8 64 3.0 SE 19 24 10 13 1021.4 1021.2 0.0
03/07:00am 11.7 7.0 5.1 64 3.0 SE 19 24 10 13 1021.0 1020.8 0.0
03/06:30am 11.9 7.2 5.1 63 3.1 SE 19 22 10 12 1020.8 1020.6 0.0
03/06:00am 11.9 7.2 5.1 63 3.1 SSE 19 22 10 12 1020.5 1020.3 0.0
03/05:30am 11.7 7.3 4.9 63 3.1 SSE 17 20 9 11 1020.3 1020.1 0.0
03/05:00am 12.3 7.6 5.0 61 3.4 SSE 19 24 10 13 1020.2 1020.0 0.0
03/04:30am 12.3 7.3 4.8 60 3.5 SSE 20 26 11 14 1020.0 1019.8 0.0
03/04:00am 12.1 7.6 4.3 59 3.5 SSE 17 20 9 11 1019.9 1019.7 0.0
03/03:30am 12.3 7.4 4.0 57 3.8 SSE 19 24 10 13 1020.0 1019.8 0.0
03/03:00am 12.9 8.0 4.1 55 4.0 SSE 19 24 10 13 1020.0 1019.8 0.0
03/02:30am 12.6 8.0 3.8 55 4.0 SSE 17 20 9 11 1020.1 1019.9 0.0
03/02:00am 12.8 8.2 3.5 53 4.2 SSE 17 20 9 11 1020.3 1020.1 0.0
03/01:30am 13.8 8.9 3.9 51 4.5 SSE 19 24 10 13 1020.6 1020.4 0.0
03/01:00am 14.0 9.0 3.8 50 4.6 SSE 19 22 10 12 1020.8 1020.6 0.0
03/12:30am 13.8 9.2 3.9 51 4.5 SSE 17 19 9 10 1020.9 1020.7 0.0
03/12:00am 14.4 9.8 3.8 49 4.8 SSE 17 19 9 10 1021.1 1020.9 0.0
 
Date/Time
EST
Temp
°C
App
Temp
°C
Dew
Point
Rel
Hum
%
Delta-T
°C
Wind Press
QNH
hPa
Press
MSL
hPa
Rain
since 9 am
mm
Dir
 
Spd
km/h
Gust
km/h
Spd
kts
Gust
kts
02/11:30pm 15.2 10.7 4.3 48 5.1 SSE 17 20 9 11 1021.2 1021.0 0.0
02/11:00pm 15.6 11.1 4.0 46 5.4 S 17 20 9 11 1021.2 1021.0 0.0
02/10:30pm 16.1 11.6 4.2 45 5.6 SSE 17 20 9 11 1021.4 1021.2 0.0
02/10:00pm 17.1 12.3 4.4 43 6.0 SSE 19 22 10 12 1021.3 1021.1 0.0
02/09:30pm 17.8 13.0 4.4 41 6.4 S 19 22 10 12 1021.2 1021.0 0.0
02/09:00pm 18.7 13.7 4.5 39 6.8 S 20 24 11 13 1021.2 1021.0 0.0
02/08:30pm 19.7 14.3 4.6 37 7.3 S 22 26 12 14 1020.9 1020.7 0.0
02/08:00pm 20.4 14.6 4.4 35 7.8 S 24 30 13 16 1020.7 1020.5 0.0
02/07:30pm 20.7 15.6 3.9 33 8.1 S 20 28 11 15 1020.5 1020.3 0.0
02/07:00pm 20.0 15.8 3.7 34 7.8 S 15 17 8 9 1020.0 1019.8 0.0
02/06:30pm 21.9 17.8 4.5 32 8.6 S 15 19 8 10 1019.7 1019.5 0.0
02/06:00pm 23.7 19.7 5.1 30 9.3 SSE 15 20 8 11 1019.5 1019.3 0.0
02/05:30pm 25.1 20.2 5.3 28 10.1 SSE 20 28 11 15 1019.2 1019.0 0.0
02/05:00pm 25.7 20.6 5.8 28 10.3 S 22 28 12 15 1019.2 1019.0 0.0
02/04:30pm 26.5 21.5 6.5 28 10.5 SSE 22 35 12 19 1019.0 1018.8 0.0
02/04:00pm 26.1 20.2 5.7 27 10.5 S 26 35 14 19 1018.9 1018.7 0.0
02/03:30pm 26.4 21.0 6.4 28 10.5 S 24 35 13 19 1019.2 1019.0 0.0
02/03:00pm 26.5 21.2 7.0 29 10.3 SSE 24 33 13 18 1019.3 1019.1 0.0
02/02:30pm 26.4 22.0 7.4 30 10.1 S 20 35 11 19 1019.7 1019.5 0.0
02/02:00pm 26.4 21.6 7.4 30 10.1 S 22 33 12 18 1019.9 1019.7 0.0
02/01:30pm 26.0 21.5 7.1 30 10.0 SSE 20 32 11 17 1020.5 1020.3 0.0
02/01:00pm 26.8 22.2 8.3 31 10.0 SSE 22 33 12 18 1021.1 1020.9 0.0
02/12:30pm 26.3 21.4 8.3 32 9.8 SSE 24 33 13 18 1021.7 1021.5 0.0
02/12:00pm 25.9 21.0 8.4 33 9.4 SE 24 33 13 18 1022.3 1022.1 0.0
02/11:30am 24.5 19.9 8.0 35 8.8 SE 22 32 12 17 1022.9 1022.6 0.0
02/11:00am 23.5 17.9 8.8 39 7.9 SE 28 35 15 19 1023.3 1023.0 0.0
02/10:30am 22.2 17.0 9.0 43 7.1 ESE 26 33 14 18 1023.8 1023.6 0.0
02/10:00am 20.9 16.3 9.5 48 6.1 ESE 24 32 13 17 1024.1 1023.9 0.0
02/09:30am 19.4 14.0 9.6 53 5.2 ESE 28 35 15 19 1024.1 1023.9 0.0
02/09:00am 17.5 12.3 8.9 57 4.5 SE 26 33 14 18 1024.1 1023.9 0.0
02/08:30am 16.2 11.3 8.4 60 4.0 SE 24 30 13 16 1023.8 1023.6 0.0
02/08:00am 15.6 11.4 8.1 61 3.8 SE 20 24 11 13 1023.6 1023.3 0.0
02/07:30am 14.3 10.9 7.6 64 3.3 SSE 15 19 8 10 1023.4 1023.1 0.0
02/07:00am 14.2 10.4 7.7 65 3.2 SSE 17 20 9 11 1023.0 1022.7 0.0
02/06:30am 14.3 10.9 7.6 64 3.3 SSE 15 19 8 10 1022.5 1022.2 0.0
02/06:00am 14.7 10.6 7.7 63 3.5 SSE 19 22 10 12 1021.8 1021.6 0.0
02/05:30am 14.2 11.2 7.9 66 3.1 SE 13 19 7 10 1021.5 1021.3 0.0
02/05:00am 14.6 10.9 8.1 65 3.3 SSE 17 20 9 11 1021.5 1021.3 0.0
02/04:30am 14.7 11.5 8.4 66 3.2 SSE 15 19 8 10 1021.5 1021.3 0.0
02/04:00am 15.2 12.1 8.9 66 3.2 SSE 15 19 8 10 1021.4 1021.2 0.0
02/03:30am 15.0 11.9 8.7 66 3.2 SSE 15 19 8 10 1021.4 1021.2 0.0
02/03:00am 15.2 11.8 9.1 67 3.1 SSE 17 20 9 11 1021.5 1021.3 0.0
02/02:30am 14.6 12.2 8.8 68 3.0 SSE 11 13 6 7 1021.5 1021.3 0.0
02/02:00am 14.9 12.5 8.8 67 3.1 SE 11 13 6 7 1021.7 1021.5 0.0
02/01:30am 14.9 12.5 8.6 66 3.2 SE 11 11 6 6 1021.9 1021.7 0.0
02/01:00am 15.8 13.5 9.0 64 3.5 SSE 11 13 6 7 1021.9 1021.7 0.0
02/12:30am 16.7 14.4 9.1 61 4.0 SE 11 15 6 8 1021.7 1021.5 0.0
02/12:00am 17.7 14.8 9.8 60 4.2 SSE 15 17 8 9 1021.8 1021.6 0.0
 
Date/Time
EST
Temp
°C
App
Temp
°C
Dew
Point
Rel
Hum
%
Delta-T
°C
Wind Press
QNH
hPa
Press
MSL
hPa
Rain
since 9 am
mm
Dir
 
Spd
km/h
Gust
km/h
Spd
kts
Gust
kts
01/11:30pm 18.4 15.2 10.0 58 4.5 SSE 17 20 9 11 1021.9 1021.7 0.0
01/11:00pm 18.6 15.8 9.9 57 4.6 SSE 15 17 8 9 1022.0 1021.8 0.0
01/10:30pm 18.9 16.1 9.9 56 4.8 SSE 15 19 8 10 1022.0 1021.8 0.0
01/10:00pm 18.0 15.3 8.8 55 4.8 SSE 13 15 7 8 1021.9 1021.7 0.0
01/09:30pm 18.9 16.2 9.1 53 5.2 SSE 13 15 7 8 1021.6 1021.4 0.0
01/09:00pm 19.6 17.0 9.5 52 5.4 SSE 13 15 7 8 1021.4 1021.2 0.0
01/08:30pm 20.1 17.6 9.7 51 5.6 SSE 13 13 7 7 1021.1 1020.9 0.0
01/08:00pm 21.1 18.7 10.0 49 6.0 SSE 13 15 7 8 1020.9 1020.7 0.0
01/07:30pm 22.2 19.4 10.0 46 6.7 SSE 15 17 8 9 1020.6 1020.4 0.0
01/07:00pm 23.0 20.6 10.1 44 7.1 SSE 13 15 7 8 1020.3 1020.1 0.0
01/06:30pm 24.4 21.3 10.3 41 7.8 SSE 17 19 9 10 1020.2 1020.0 0.0
01/06:00pm 25.9 22.5 10.5 38 8.6 SSE 19 24 10 13 1020.0 1019.8 0.0
01/05:30pm 27.0 23.2 11.1 37 9.1 SE 22 32 12 17 1019.8 1019.6 0.0
01/05:00pm 27.4 23.9 11.0 36 9.3 SSE 20 28 11 15 1019.6 1019.4 0.0
01/04:30pm 27.7 23.4 10.9 35 9.6 SE 24 32 13 17 1019.4 1019.2 0.0
01/04:00pm 28.3 24.9 11.4 35 9.7 SE 20 30 11 16 1019.5 1019.3 0.0
01/03:30pm 28.0 24.3 11.5 35 9.5 SSE 22 33 12 18 1019.6 1019.4 0.0
01/03:00pm 28.6 25.9 12.9 38 9.3 SE 19 30 10 16 1019.8 1019.6 0.0
01/02:30pm 27.8 24.3 12.2 38 9.1 SE 22 35 12 19 1020.1 1019.9 0.0
01/02:00pm 27.6 24.3 12.8 40 8.7 SE 22 37 12 20 1020.5 1020.3 0.0
01/01:30pm 27.1 24.1 12.7 41 8.4 SE 20 30 11 16 1021.1 1020.9 0.0
01/01:00pm 26.9 24.1 13.3 43 8.0 SE 20 32 11 17 1021.8 1021.6 0.0
01/12:30pm 26.6 23.3 14.0 46 7.5 SE 24 33 13 18 1022.5 1022.2 0.0
01/12:00pm 25.8 22.9 14.0 48 7.0 SE 22 32 12 17 1023.0 1022.7 0.0

Other Formats:

Comma delimited format used in spreadsheet applications
http://www.bom.gov.au/fwo/IDQ60801/IDQ60801.94337.axf

JavaScript Object Notation format (JSON) in row-major order
http://www.bom.gov.au/fwo/IDQ60801/IDQ60801.94337.json